sensor_id;sensor_type;location;lat;lon;timestamp;pressure;altitude;pressure_sealevel;temperature;humidity
53546;BME280;39432;51.902;10.844;2023-04-26T00:01:44;99505.47;;;4.42;100.00
53546;BME280;39432;51.902;10.844;2023-04-26T00:04:14;99511.16;;;4.34;100.00
53546;BME280;39432;51.902;10.844;2023-04-26T00:06:44;99513.00;;;4.40;100.00
53546;BME280;39432;51.902;10.844;2023-04-26T00:09:15;99518.59;;;4.14;100.00
53546;BME280;39432;51.902;10.844;2023-04-26T00:11:46;99519.38;;;4.21;100.00
53546;BME280;39432;51.902;10.844;2023-04-26T00:14:16;99521.53;;;4.06;100.00
53546;BME280;39432;51.902;10.844;2023-04-26T00:16:48;99518.59;;;4.14;100.00
53546;BME280;39432;51.902;10.844;2023-04-26T00:19:18;99519.06;;;4.04;100.00
53546;BME280;39432;51.902;10.844;2023-04-26T00:21:47;99524.94;;;3.94;100.00
53546;BME280;39432;51.902;10.844;2023-04-26T00:24:17;99523.41;;;4.05;100.00
53546;BME280;39432;51.902;10.844;2023-04-26T00:26:47;99524.06;;;4.01;100.00
53546;BME280;39432;51.902;10.844;2023-04-26T00:29:17;99523.38;;;3.80;100.00
53546;BME280;39432;51.902;10.844;2023-04-26T00:31:49;99523.78;;;3.77;100.00
53546;BME280;39432;51.902;10.844;2023-04-26T00:34:18;99521.72;;;3.73;100.00
53546;BME280;39432;51.902;10.844;2023-04-26T00:36:49;99521.75;;;3.66;100.00
53546;BME280;39432;51.902;10.844;2023-04-26T00:39:19;99525.91;;;3.68;100.00
53546;BME280;39432;51.902;10.844;2023-04-26T00:41:48;99529.63;;;3.74;100.00
53546;BME280;39432;51.902;10.844;2023-04-26T00:44:18;99525.06;;;3.68;100.00
53546;BME280;39432;51.902;10.844;2023-04-26T00:46:52;99522.72;;;3.78;100.00
53546;BME280;39432;51.902;10.844;2023-04-26T00:49:23;99531.34;;;3.62;100.00
53546;BME280;39432;51.902;10.844;2023-04-26T00:51:54;99528.66;;;3.55;100.00
53546;BME280;39432;51.902;10.844;2023-04-26T00:54:24;99525.09;;;3.61;100.00
53546;BME280;39432;51.902;10.844;2023-04-26T00:56:54;99528.03;;;3.60;100.00
53546;BME280;39432;51.902;10.844;2023-04-26T00:59:25;99516.44;;;3.39;100.00
53546;BME280;39432;51.902;10.844;2023-04-26T01:01:57;99522.25;;;3.43;100.00
53546;BME280;39432;51.902;10.844;2023-04-26T01:04:27;99521.44;;;3.42;100.00
53546;BME280;39432;51.902;10.844;2023-04-26T01:06:58;99519.72;;;3.55;100.00
53546;BME280;39432;51.902;10.844;2023-04-26T01:09:32;99523.84;;;3.64;100.00
53546;BME280;39432;51.902;10.844;2023-04-26T01:12:03;99522.19;;;3.63;100.00
53546;BME280;39432;51.902;10.844;2023-04-26T01:14:34;99517.13;;;3.73;100.00
53546;BME280;39432;51.902;10.844;2023-04-26T01:17:07;99523.03;;;3.63;100.00
53546;BME280;39432;51.902;10.844;2023-04-26T01:19:45;99526.91;;;3.16;100.00
53546;BME280;39432;51.902;10.844;2023-04-26T01:22:15;99524.81;;;3.31;100.00
53546;BME280;39432;51.902;10.844;2023-04-26T01:24:49;99527.31;;;3.26;100.00
53546;BME280;39432;51.902;10.844;2023-04-26T01:27:19;99529.41;;;3.17;100.00
53546;BME280;39432;51.902;10.844;2023-04-26T01:29:49;99529.81;;;3.21;100.00
53546;BME280;39432;51.902;10.844;2023-04-26T01:32:19;99539.78;;;3.27;100.00
53546;BME280;39432;51.902;10.844;2023-04-26T01:34:49;99532.31;;;3.16;100.00
53546;BME280;39432;51.902;10.844;2023-04-26T01:37:19;99525.00;;;3.23;100.00
53546;BME280;39432;51.902;10.844;2023-04-26T01:39:51;99529.84;;;3.14;100.00
53546;BME280;39432;51.902;10.844;2023-04-26T01:42:21;99530.47;;;3.10;100.00
53546;BME280;39432;51.902;10.844;2023-04-26T01:44:51;99538.13;;;3.26;100.00
53546;BME280;39432;51.902;10.844;2023-04-26T01:47:21;99538.31;;;3.31;100.00
53546;BME280;39432;51.902;10.844;2023-04-26T01:49:52;99536.44;;;3.32;100.00
53546;BME280;39432;51.902;10.844;2023-04-26T01:52:22;99537.31;;;3.19;100.00
53546;BME280;39432;51.902;10.844;2023-04-26T01:54:54;99533.31;;;3.28;100.00
53546;BME280;39432;51.902;10.844;2023-04-26T01:57:25;99532.47;;;3.34;100.00
53546;BME280;39432;51.902;10.844;2023-04-26T01:59:55;99539.78;;;3.27;100.00
53546;BME280;39432;51.902;10.844;2023-04-26T02:02:25;99530.81;;;3.33;100.00
53546;BME280;39432;51.902;10.844;2023-04-26T02:04:55;99531.72;;;3.14;100.00
53546;BME280;39432;51.902;10.844;2023-04-26T02:07:25;99536.47;;;3.12;100.00
53546;BME280;39432;51.902;10.844;2023-04-26T02:09:58;99538.38;;;3.05;100.00
53546;BME280;39432;51.902;10.844;2023-04-26T02:12:28;99544.38;;;3.20;100.00
53546;BME280;39432;51.902;10.844;2023-04-26T02:14:58;99539.56;;;3.22;100.00
53546;BME280;39432;51.902;10.844;2023-04-26T02:17:28;99529.81;;;3.21;100.00
53546;BME280;39432;51.902;10.844;2023-04-26T02:19:58;99540.03;;;3.19;100.00
53546;BME280;39432;51.902;10.844;2023-04-26T02:22:28;99531.50;;;3.09;100.00
53546;BME280;39432;51.902;10.844;2023-04-26T02:25:00;99538.97;;;3.07;100.00
53546;BME280;39432;51.902;10.844;2023-04-26T02:27:32;99534.41;;;3.07;100.00
53546;BME280;39432;51.902;10.844;2023-04-26T02:30:02;99538.56;;;3.10;100.00
53546;BME280;39432;51.902;10.844;2023-04-26T02:32:31;99538.13;;;3.13;100.00
53546;BME280;39432;51.902;10.844;2023-04-26T02:35:02;99539.81;;;3.07;100.00
53546;BME280;39432;51.902;10.844;2023-04-26T02:37:34;99534.00;;;3.04;100.00
53546;BME280;39432;51.902;10.844;2023-04-26T02:40:08;99534.41;;;3.07;100.00
53546;BME280;39432;51.902;10.844;2023-04-26T02:42:39;99535.06;;;3.03;100.00
53546;BME280;39432;51.902;10.844;2023-04-26T02:45:10;99535.44;;;3.13;100.00
53546;BME280;39432;51.902;10.844;2023-04-26T02:47:40;99542.31;;;3.09;100.00
53546;BME280;39432;51.902;10.844;2023-04-26T02:50:10;99545.22;;;3.07;100.00
53546;BME280;39432;51.902;10.844;2023-04-26T02:52:40;99536.47;;;3.12;100.00
53546;BME280;39432;51.902;10.844;2023-04-26T02:55:12;99536.06;;;3.15;100.00
53546;BME280;39432;51.902;10.844;2023-04-26T02:57:43;99536.06;;;3.15;100.00
53546;BME280;39432;51.902;10.844;2023-04-26T03:00:13;99536.91;;;3.09;100.00
53546;BME280;39432;51.902;10.844;2023-04-26T03:02:43;99541.88;;;3.12;100.00
53546;BME280;39432;51.902;10.844;2023-04-26T03:05:13;99537.69;;;3.23;100.00
53546;BME280;39432;51.902;10.844;2023-04-26T03:07:43;99542.69;;;3.32;100.00
53546;BME280;39432;51.902;10.844;2023-04-26T03:10:15;99534.97;;;3.29;100.00
53546;BME280;39432;51.902;10.844;2023-04-26T03:12:45;99536.06;;;3.02;100.00
53546;BME280;39432;51.902;10.844;2023-04-26T03:15:15;99537.31;;;3.12;100.00
53546;BME280;39432;51.902;10.844;2023-04-26T03:17:45;99535.03;;;3.16;100.00
53546;BME280;39432;51.902;10.844;2023-04-26T03:20:15;99536.69;;;3.17;100.00
53546;BME280;39432;51.902;10.844;2023-04-26T03:22:45;99536.91;;;3.15;100.00
53546;BME280;39432;51.902;10.844;2023-04-26T03:25:18;99530.22;;;3.25;100.00
53546;BME280;39432;51.902;10.844;2023-04-26T03:27:48;99528.56;;;3.17;100.00
53546;BME280;39432;51.902;10.844;2023-04-26T03:30:18;99527.09;;;3.21;100.00
53546;BME280;39432;51.902;10.844;2023-04-26T03:32:48;99526.91;;;3.16;100.00
53546;BME280;39432;51.902;10.844;2023-04-26T03:35:18;99530.03;;;3.13;100.00
53546;BME280;39432;51.902;10.844;2023-04-26T03:37:48;99532.34;;;3.09;100.00
53546;BME280;39432;51.902;10.844;2023-04-26T03:40:22;99538.53;;;3.23;100.00
53546;BME280;39432;51.902;10.844;2023-04-26T03:42:52;99526.91;;;3.16;100.00
53546;BME280;39432;51.902;10.844;2023-04-26T03:45:22;99540.88;;;3.00;100.00
53546;BME280;39432;51.902;10.844;2023-04-26T03:47:52;99543.97;;;3.16;100.00
53546;BME280;39432;51.902;10.844;2023-04-26T03:50:22;99541.88;;;3.18;100.00
53546;BME280;39432;51.902;10.844;2023-04-26T03:52:52;99543.75;;;3.18;100.00
53546;BME280;39432;51.902;10.844;2023-04-26T03:55:24;99539.81;;;3.14;100.00
53546;BME280;39432;51.902;10.844;2023-04-26T03:57:55;99545.63;;;3.11;100.00
53546;BME280;39432;51.902;10.844;2023-04-26T04:00:25;99542.72;;;3.19;100.00
53546;BME280;39432;51.902;10.844;2023-04-26T04:02:55;99547.28;;;3.12;100.00
53546;BME280;39432;51.902;10.844;2023-04-26T04:05:25;99543.78;;;3.05;100.00
53546;BME280;39432;51.902;10.844;2023-04-26T04:07:56;99551.44;;;3.21;100.00
53546;BME280;39432;51.902;10.844;2023-04-26T04:10:29;99543.16;;;3.03;100.00
53546;BME280;39432;51.902;10.844;2023-04-26T04:12:59;99552.66;;;3.32;100.00
53546;BME280;39432;51.902;10.844;2023-04-26T04:15:29;99547.28;;;3.25;100.00
53546;BME280;39432;51.902;10.844;2023-04-26T04:17:59;99546.44;;;3.31;100.00
53546;BME280;39432;51.902;10.844;2023-04-26T04:20:29;99557.84;;;3.47;100.00
53546;BME280;39432;51.902;10.844;2023-04-26T04:22:59;99555.53;;;3.43;100.00
53546;BME280;39432;51.902;10.844;2023-04-26T04:25:33;99546.75;;;3.55;100.00
53546;BME280;39432;51.902;10.844;2023-04-26T04:28:06;99547.13;;;3.72;100.00
53546;BME280;39432;51.902;10.844;2023-04-26T04:30:37;99551.69;;;4.16;100.00
53546;BME280;39432;51.902;10.844;2023-04-26T04:33:07;99550.19;;;4.20;100.00
53546;BME280;39432;51.902;10.844;2023-04-26T04:35:37;99556.91;;;4.11;100.00
53546;BME280;39432;51.902;10.844;2023-04-26T04:38:07;99561.13;;;4.38;100.00
53546;BME280;39432;51.902;10.844;2023-04-26T04:40:39;99546.41;;;4.84;100.00
53546;BME280;39432;51.902;10.844;2023-04-26T04:43:09;99546.28;;;4.97;100.00
53546;BME280;39432;51.902;10.844;2023-04-26T04:45:40;99547.31;;;4.71;100.00
53546;BME280;39432;51.902;10.844;2023-04-26T04:48:10;99548.06;;;4.85;100.00
53546;BME280;39432;51.902;10.844;2023-04-26T04:50:40;99557.53;;;4.44;100.00
53546;BME280;39432;51.902;10.844;2023-04-26T04:53:10;99551.56;;;4.61;100.00
53546;BME280;39432;51.902;10.844;2023-04-26T04:55:43;99560.47;;;4.43;100.00
53546;BME280;39432;51.902;10.844;2023-04-26T04:58:15;99559.22;;;4.70;100.00
53546;BME280;39432;51.902;10.844;2023-04-26T05:00:44;99561.97;;;5.14;100.00
53546;BME280;39432;51.902;10.844;2023-04-26T05:03:40;99562.22;;;4.87;100.00
53546;BME280;39432;51.902;10.844;2023-04-26T05:06:10;99559.91;;;4.91;100.00
53546;BME280;39432;51.902;10.844;2023-04-26T05:08:40;99556.97;;;5.11;100.00
53546;BME280;39432;51.902;10.844;2023-04-26T05:11:12;99569.06;;;5.15;100.00
53546;BME280;39432;51.902;10.844;2023-04-26T05:13:42;99565.53;;;4.89;100.00
53546;BME280;39432;51.902;10.844;2023-04-26T05:16:12;99570.72;;;4.66;100.00
53546;BME280;39432;51.902;10.844;2023-04-26T05:18:42;99569.13;;;4.58;100.00
53546;BME280;39432;51.902;10.844;2023-04-26T05:21:12;99565.41;;;5.02;100.00
53546;BME280;39432;51.902;10.844;2023-04-26T05:23:43;99562.75;;;4.71;100.00
53546;BME280;39432;51.902;10.844;2023-04-26T05:26:15;99565.28;;;4.66;100.00
53546;BME280;39432;51.902;10.844;2023-04-26T05:29:08;99570.91;;;4.39;100.00
53546;BME280;39432;51.902;10.844;2023-04-26T05:31:53;99574.31;;;4.28;100.00
53546;BME280;39432;51.902;10.844;2023-04-26T05:34:51;99590.91;;;4.38;100.00
53546;BME280;39432;51.902;10.844;2023-04-26T05:37:21;99589.59;;;4.47;100.00
53546;BME280;39432;51.902;10.844;2023-04-26T05:39:51;99587.06;;;4.53;100.00
53546;BME280;39432;51.902;10.844;2023-04-26T05:42:23;99580.19;;;4.57;100.00
53546;BME280;39432;51.902;10.844;2023-04-26T05:44:56;99587.94;;;4.46;100.00
53546;BME280;39432;51.902;10.844;2023-04-26T05:47:26;99584.19;;;4.79;100.00
53546;BME280;39432;51.902;10.844;2023-04-26T05:49:56;99594.81;;;5.06;100.00
53546;BME280;39432;51.902;10.844;2023-04-26T05:52:26;99585.53;;;5.57;100.00
53546;BME280;39432;51.902;10.844;2023-04-26T05:54:56;99580.09;;;6.12;100.00
53546;BME280;39432;51.902;10.844;2023-04-26T05:57:30;99578.97;;;6.31;100.00
53546;BME280;39432;51.902;10.844;2023-04-26T06:00:02;99585.25;;;6.62;100.00
53546;BME280;39432;51.902;10.844;2023-04-26T06:02:41;99584.53;;;6.66;100.00
53546;BME280;39432;51.902;10.844;2023-04-26T06:05:16;99589.94;;;6.24;100.00
53546;BME280;39432;51.902;10.844;2023-04-26T06:07:46;99581.16;;;6.11;100.00
53546;BME280;39432;51.902;10.844;2023-04-26T06:10:16;99584.72;;;6.95;100.00
53546;BME280;39432;51.902;10.844;2023-04-26T06:12:49;99584.13;;;7.04;100.00
53546;BME280;39432;51.902;10.844;2023-04-26T06:15:20;99583.44;;;7.09;100.00
53546;BME280;39432;51.902;10.844;2023-04-26T06:17:50;99587.41;;;6.71;100.00
53546;BME280;39432;51.902;10.844;2023-04-26T06:20:20;99579.31;;;6.65;100.00
53546;BME280;39432;51.902;10.844;2023-04-26T06:22:50;99581.72;;;6.73;100.00
53546;BME280;39432;51.902;10.844;2023-04-26T06:25:20;99581.66;;;7.15;100.00
53546;BME280;39432;51.902;10.844;2023-04-26T06:27:52;99584.09;;;6.81;100.00
53546;BME280;39432;51.902;10.844;2023-04-26T06:30:22;99585.34;;;7.32;100.00
53546;BME280;39432;51.902;10.844;2023-04-26T06:32:52;99593.94;;;6.94;100.00
53546;BME280;39432;51.902;10.844;2023-04-26T06:35:25;99586.25;;;7.02;100.00
53546;BME280;39432;51.902;10.844;2023-04-26T06:37:54;99591.94;;;7.12;100.00
53546;BME280;39432;51.902;10.844;2023-04-26T06:40:25;99582.00;;;7.30;100.00
53546;BME280;39432;51.902;10.844;2023-04-26T06:42:58;99585.13;;;7.97;100.00
53546;BME280;39432;51.902;10.844;2023-04-26T06:45:43;99587.66;;;7.63;100.00
53546;BME280;39432;51.902;10.844;2023-04-26T06:48:13;99586.88;;;7.39;100.00
53546;BME280;39432;51.902;10.844;2023-04-26T06:50:44;99589.59;;;7.28;100.00
53546;BME280;39432;51.902;10.844;2023-04-26T06:53:14;99595.28;;;7.38;100.00
53546;BME280;39432;51.902;10.844;2023-04-26T06:55:44;99593.81;;;7.71;100.00
53546;BME280;39432;51.902;10.844;2023-04-26T06:58:16;99592.13;;;7.93;100.00
53546;BME280;39432;51.902;10.844;2023-04-26T07:00:47;99591.56;;;8.19;100.00
53546;BME280;39432;51.902;10.844;2023-04-26T07:03:16;99588.41;;;8.68;96.98
53546;BME280;39432;51.902;10.844;2023-04-26T07:05:47;99599.03;;;8.12;98.71
53546;BME280;39432;51.902;10.844;2023-04-26T07:08:16;99594.31;;;7.56;100.00
53546;BME280;39432;51.902;10.844;2023-04-26T07:10:46;99598.47;;;8.10;100.00
53546;BME280;39432;51.902;10.844;2023-04-26T07:13:20;99599.00;;;7.84;100.00
53546;BME280;39432;51.902;10.844;2023-04-26T07:15:49;99603.72;;;7.88;99.54
53546;BME280;39432;51.902;10.844;2023-04-26T07:18:19;99605.06;;;7.51;99.86
53546;BME280;39432;51.902;10.844;2023-04-26T07:20:49;99615.63;;;7.47;100.00
53546;BME280;39432;51.902;10.844;2023-04-26T07:23:18;99614.25;;;6.91;100.00
53546;BME280;39432;51.902;10.844;2023-04-26T07:25:48;99610.03;;;7.19;100.00
53546;BME280;39432;51.902;10.844;2023-04-26T07:28:20;99616.19;;;7.73;100.00
53546;BME280;39432;51.902;10.844;2023-04-26T07:30:50;99609.13;;;8.12;99.63
53546;BME280;39432;51.902;10.844;2023-04-26T07:33:20;99612.16;;;8.27;97.34
53546;BME280;39432;51.902;10.844;2023-04-26T07:35:53;99624.59;;;7.83;94.15
53546;BME280;39432;51.902;10.844;2023-04-26T07:38:24;99617.47;;;8.62;93.70
53546;BME280;39432;51.902;10.844;2023-04-26T07:40:54;99622.00;;;8.85;90.74
53546;BME280;39432;51.902;10.844;2023-04-26T07:43:29;99624.56;;;8.92;88.53
53546;BME280;39432;51.902;10.844;2023-04-26T07:45:59;99631.03;;;8.57;88.59
53546;BME280;39432;51.902;10.844;2023-04-26T07:48:29;99622.03;;;9.02;86.39
53546;BME280;39432;51.902;10.844;2023-04-26T07:51:06;99619.50;;;9.01;84.91
53546;BME280;39432;51.902;10.844;2023-04-26T07:53:36;99618.91;;;9.66;83.96
53546;BME280;39432;51.902;10.844;2023-04-26T07:56:08;99622.75;;;8.52;85.29
53546;BME280;39432;51.902;10.844;2023-04-26T07:58:40;99624.81;;;7.93;87.35
53546;BME280;39432;51.902;10.844;2023-04-26T08:01:10;99633.25;;;7.45;90.08
53546;BME280;39432;51.902;10.844;2023-04-26T08:03:42;99627.72;;;8.15;92.08
53546;BME280;39432;51.902;10.844;2023-04-26T08:06:13;99623.78;;;8.23;90.05
53546;BME280;39432;51.902;10.844;2023-04-26T08:08:43;99626.03;;;7.50;90.66
53546;BME280;39432;51.902;10.844;2023-04-26T08:11:16;99630.19;;;7.64;91.84
53546;BME280;39432;51.902;10.844;2023-04-26T08:13:49;99626.69;;;8.04;92.48
53546;BME280;39432;51.902;10.844;2023-04-26T08:16:19;99632.69;;;8.06;90.87
53546;BME280;39432;51.902;10.844;2023-04-26T08:18:49;99627.47;;;7.64;92.27
53546;BME280;39432;51.902;10.844;2023-04-26T08:21:18;99639.41;;;7.28;92.93
53546;BME280;39432;51.902;10.844;2023-04-26T08:23:49;99634.53;;;7.30;93.56
53546;BME280;39432;51.902;10.844;2023-04-26T08:26:19;99626.16;;;7.55;93.97
53546;BME280;39432;51.902;10.844;2023-04-26T08:28:51;99625.78;;;7.87;93.44
53546;BME280;39432;51.902;10.844;2023-04-26T08:31:21;99619.31;;;7.53;92.25
53546;BME280;39432;51.902;10.844;2023-04-26T08:33:51;99622.13;;;8.79;90.41
53546;BME280;39432;51.902;10.844;2023-04-26T08:36:21;99630.16;;;8.28;86.73
53546;BME280;39432;51.902;10.844;2023-04-26T08:38:50;99631.22;;;7.40;88.94
53546;BME280;39432;51.902;10.844;2023-04-26T08:41:24;99626.38;;;7.77;91.28
53546;BME280;39432;51.902;10.844;2023-04-26T08:43:57;99624.00;;;7.57;86.55
53546;BME280;39432;51.902;10.844;2023-04-26T08:46:35;99621.00;;;7.94;85.51
53546;BME280;39432;51.902;10.844;2023-04-26T08:49:14;99627.41;;;8.52;84.33
53546;BME280;39432;51.902;10.844;2023-04-26T08:51:46;99610.91;;;9.42;82.47
53546;BME280;39432;51.902;10.844;2023-04-26T08:54:18;99611.94;;;9.03;78.93
53546;BME280;39432;51.902;10.844;2023-04-26T08:56:48;99617.47;;;8.62;77.59
53546;BME280;39432;51.902;10.844;2023-04-26T08:59:21;99613.31;;;8.43;77.84
53546;BME280;39432;51.902;10.844;2023-04-26T09:01:52;99622.25;;;7.75;78.44
53546;BME280;39432;51.902;10.844;2023-04-26T09:04:22;99625.66;;;7.82;80.02
53546;BME280;39432;51.902;10.844;2023-04-26T09:06:54;99633.03;;;8.22;79.67
53546;BME280;39432;51.902;10.844;2023-04-26T09:09:27;99632.00;;;8.51;79.18
53546;BME280;39432;51.902;10.844;2023-04-26T09:11:58;99627.53;;;8.33;78.59
53546;BME280;39432;51.902;10.844;2023-04-26T09:14:31;99627.94;;;8.25;78.29
53546;BME280;39432;51.902;10.844;2023-04-26T09:17:01;99629.06;;;7.89;80.00
53546;BME280;39432;51.902;10.844;2023-04-26T09:19:34;99632.19;;;7.57;80.17
53546;BME280;39432;51.902;10.844;2023-04-26T09:22:05;99635.00;;;7.62;80.26
53546;BME280;39432;51.902;10.844;2023-04-26T09:24:48;99638.88;;;8.02;80.22
53546;BME280;39432;51.902;10.844;2023-04-26T09:27:18;99637.72;;;7.74;77.59
53546;BME280;39432;51.902;10.844;2023-04-26T09:30:01;99637.75;;;7.62;78.38
53546;BME280;39432;51.902;10.844;2023-04-26T09:32:48;99635.72;;;7.58;79.23
53546;BME280;39432;51.902;10.844;2023-04-26T09:35:25;99638.81;;;7.38;80.82
53546;BME280;39432;51.902;10.844;2023-04-26T09:37:57;99634.50;;;8.01;80.36
53546;BME280;39432;51.902;10.844;2023-04-26T09:40:40;99641.72;;;7.95;77.71
53546;BME280;39432;51.902;10.844;2023-04-26T09:43:12;99636.78;;;7.92;76.83
53546;BME280;39432;51.902;10.844;2023-04-26T09:45:47;99642.13;;;8.39;77.77
53546;BME280;39432;51.902;10.844;2023-04-26T09:48:18;99643.34;;;8.19;78.36
53546;BME280;39432;51.902;10.844;2023-04-26T09:50:50;99642.50;;;8.31;82.36
53546;BME280;39432;51.902;10.844;2023-04-26T09:53:26;99636.81;;;8.21;84.36
53546;BME280;39432;51.902;10.844;2023-04-26T09:56:05;99638.44;;;7.81;84.85
53546;BME280;39432;51.902;10.844;2023-04-26T09:58:37;99639.84;;;7.96;83.36
53546;BME280;39432;51.902;10.844;2023-04-26T10:01:11;99643.19;;;8.38;83.78
53546;BME280;39432;51.902;10.844;2023-04-26T10:03:44;99647.38;;;8.17;82.02
53546;BME280;39432;51.902;10.844;2023-04-26T10:06:14;99642.41;;;8.14;79.80
53546;BME280;39432;51.902;10.844;2023-04-26T10:08:44;99643.94;;;8.22;77.28
53546;BME280;39432;51.902;10.844;2023-04-26T10:11:14;99643.16;;;7.98;74.61
53546;BME280;39432;51.902;10.844;2023-04-26T10:13:44;99648.66;;;8.38;73.98
53546;BME280;39432;51.902;10.844;2023-04-26T10:16:17;99645.00;;;9.06;72.49
53546;BME280;39432;51.902;10.844;2023-04-26T10:18:47;99637.19;;;9.65;69.58
53546;BME280;39432;51.902;10.844;2023-04-26T10:21:21;99641.03;;;9.64;68.75
53546;BME280;39432;51.902;10.844;2023-04-26T10:23:55;99642.50;;;9.55;69.49
53546;BME280;39432;51.902;10.844;2023-04-26T10:26:46;99647.25;;;8.64;69.71
53546;BME280;39432;51.902;10.844;2023-04-26T10:29:18;99641.03;;;9.31;71.68
53546;BME280;39432;51.902;10.844;2023-04-26T10:32:08;99642.53;;;9.05;71.31
53546;BME280;39432;51.902;10.844;2023-04-26T10:35:10;99640.00;;;8.69;70.07
53546;BME280;39432;51.902;10.844;2023-04-26T10:38:10;99637.78;;;9.00;73.13
53546;BME280;39432;51.902;10.844;2023-04-26T10:40:39;99630.03;;;8.92;71.39
53546;BME280;39432;51.902;10.844;2023-04-26T10:43:26;99636.91;;;8.37;70.17
53546;BME280;39432;51.902;10.844;2023-04-26T10:45:56;99631.59;;;8.88;68.84
53546;BME280;39432;51.902;10.844;2023-04-26T10:48:30;99634.25;;;9.16;69.45
53546;BME280;39432;51.902;10.844;2023-04-26T10:51:09;99638.31;;;8.97;68.38
53546;BME280;39432;51.902;10.844;2023-04-26T10:53:58;99626.31;;;10.09;66.93
53546;BME280;39432;51.902;10.844;2023-04-26T10:56:51;99627.50;;;9.74;64.82
53546;BME280;39432;51.902;10.844;2023-04-26T10:59:21;99638.63;;;9.17;65.29
53546;BME280;39432;51.902;10.844;2023-04-26T11:02:09;99632.03;;;9.13;65.85
53546;BME280;39432;51.902;10.844;2023-04-26T11:04:54;99636.66;;;9.13;67.22
53546;BME280;39432;51.902;10.844;2023-04-26T11:07:35;99628.59;;;8.89;68.44
53546;BME280;39432;51.902;10.844;2023-04-26T11:10:07;99645.72;;;8.56;70.58
53546;BME280;39432;51.902;10.844;2023-04-26T11:12:40;99641.94;;;8.57;72.01
53546;BME280;39432;51.902;10.844;2023-04-26T11:15:11;99629.19;;;8.75;73.28
53546;BME280;39432;51.902;10.844;2023-04-26T11:17:41;99633.09;;;8.95;70.96
53546;BME280;39432;51.902;10.844;2023-04-26T11:20:17;99634.06;;;9.06;66.89
53546;BME280;39432;51.902;10.844;2023-04-26T11:22:47;99633.19;;;9.34;64.84
53546;BME280;39432;51.902;10.844;2023-04-26T11:25:17;99626.50;;;9.08;66.41
53546;BME280;39432;51.902;10.844;2023-04-26T11:27:47;99629.28;;;8.80;66.64
53546;BME280;39432;51.902;10.844;2023-04-26T11:30:17;99624.97;;;9.01;70.56
53546;BME280;39432;51.902;10.844;2023-04-26T11:32:47;99624.22;;;8.88;69.76
53546;BME280;39432;51.902;10.844;2023-04-26T11:35:20;99624.25;;;9.05;67.10
53546;BME280;39432;51.902;10.844;2023-04-26T11:37:50;99622.69;;;9.09;65.61
53546;BME280;39432;51.902;10.844;2023-04-26T11:40:20;99625.94;;;8.78;66.37
53546;BME280;39432;51.902;10.844;2023-04-26T11:42:50;99624.56;;;8.92;66.04
53546;BME280;39432;51.902;10.844;2023-04-26T11:45:20;99625.25;;;9.16;67.32
53546;BME280;39432;51.902;10.844;2023-04-26T11:47:50;99623.66;;;9.03;68.13
53546;BME280;39432;51.902;10.844;2023-04-26T11:50:23;99626.97;;;9.39;69.08
53546;BME280;39432;51.902;10.844;2023-04-26T11:52:54;99629.53;;;9.62;69.51
53546;BME280;39432;51.902;10.844;2023-04-26T11:55:26;99624.66;;;9.31;68.29
53546;BME280;39432;51.902;10.844;2023-04-26T11:57:58;99624.50;;;9.20;66.89
53546;BME280;39432;51.902;10.844;2023-04-26T12:00:29;99619.28;;;9.36;66.31
53546;BME280;39432;51.902;10.844;2023-04-26T12:03:03;99615.88;;;9.62;65.29
53546;BME280;39432;51.902;10.844;2023-04-26T12:05:39;99623.56;;;9.48;64.97
53546;BME280;39432;51.902;10.844;2023-04-26T12:08:09;99629.13;;;9.37;63.39
53546;BME280;39432;51.902;10.844;2023-04-26T12:10:40;99625.97;;;9.62;62.23
53546;BME280;39432;51.902;10.844;2023-04-26T12:13:12;99635.19;;;9.77;62.36
53546;BME280;39432;51.902;10.844;2023-04-26T12:15:44;99627.66;;;9.46;61.36
53546;BME280;39432;51.902;10.844;2023-04-26T12:18:16;99627.72;;;9.51;61.28
53546;BME280;39432;51.902;10.844;2023-04-26T12:20:56;99627.88;;;9.28;60.26
53546;BME280;39432;51.902;10.844;2023-04-26T12:23:35;99637.13;;;9.60;59.35
53546;BME280;39432;51.902;10.844;2023-04-26T12:26:05;99637.91;;;9.94;59.08
53546;BME280;39432;51.902;10.844;2023-04-26T12:28:38;99629.19;;;10.19;58.69
53546;BME280;39432;51.902;10.844;2023-04-26T12:31:08;99627.88;;;10.00;57.98
53546;BME280;39432;51.902;10.844;2023-04-26T12:33:37;99621.50;;;10.16;58.88
53546;BME280;39432;51.902;10.844;2023-04-26T12:36:11;99631.03;;;9.92;59.67
53546;BME280;39432;51.902;10.844;2023-04-26T12:38:41;99624.28;;;10.21;59.90
53546;BME280;39432;51.902;10.844;2023-04-26T12:41:11;99625.13;;;10.00;59.05
53546;BME280;39432;51.902;10.844;2023-04-26T12:43:41;99620.59;;;9.89;59.73
53546;BME280;39432;51.902;10.844;2023-04-26T12:46:10;99625.94;;;9.79;59.92
53546;BME280;39432;51.902;10.844;2023-04-26T12:48:40;99629.44;;;9.57;61.21
53546;BME280;39432;51.902;10.844;2023-04-26T12:51:12;99624.72;;;9.53;62.74
53546;BME280;39432;51.902;10.844;2023-04-26T12:53:42;99633.09;;;9.46;61.70
53546;BME280;39432;51.902;10.844;2023-04-26T12:56:12;99633.25;;;9.22;59.98
53546;BME280;39432;51.902;10.844;2023-04-26T12:58:42;99636.88;;;9.11;59.43
53546;BME280;39432;51.902;10.844;2023-04-26T13:01:12;99629.78;;;8.93;60.77
53546;BME280;39432;51.902;10.844;2023-04-26T13:03:42;99637.88;;;8.88;62.56
53546;BME280;39432;51.902;10.844;2023-04-26T13:06:15;99630.53;;;9.06;62.93
53546;BME280;39432;51.902;10.844;2023-04-26T13:08:44;99631.59;;;9.21;62.72
53546;BME280;39432;51.902;10.844;2023-04-26T13:11:14;99634.59;;;9.37;63.08
53546;BME280;39432;51.902;10.844;2023-04-26T13:13:44;99633.25;;;9.22;63.30
53546;BME280;39432;51.902;10.844;2023-04-26T13:16:15;99640.19;;;9.64;64.52
53546;BME280;39432;51.902;10.844;2023-04-26T13:18:45;99634.75;;;9.47;64.43
53546;BME280;39432;51.902;10.844;2023-04-26T13:21:17;99634.06;;;9.73;64.22